Time;durP1;ratioP1;P1;durP2;ratioP2;P2;SDS_P1;SDS_P2;PMS_P1;PMS_P2;Temp;Humidity;BMP_temperature;BMP_pressure;BME280_temperature;BME280_humidity;BME280_pressure;Samples;Min_cycle;Max_cycle;Signal;HPM_P1;HPM_P2
2022/10/01 00:04:51;;;;;;;4.33;2.53;;;;;;;12.67;42.26;99542.03;10396501;28;20235;-78
2022/10/01 00:10:14;;;;;;;2.80;1.77;;;;;;;13.26;41.19;99538.09;10410393;28;20196;-78
2022/10/01 00:15:40;;;;;;;4.43;2.03;;;;;;;12.73;42.03;99524.78;10397303;28;20216;-78
2022/10/01 00:21:08;;;;;;;3.23;1.80;;;;;;;12.82;42.14;99514.88;10409715;28;20271;-79
2022/10/01 00:26:33;;;;;;;2.33;2.10;;;;;;;12.25;43.24;99501.44;10406021;28;20256;-79
2022/10/01 00:31:56;;;;;;;4.10;2.27;;;;;;;12.81;42.26;99492.63;10428810;28;20235;-78
2022/10/01 00:37:18;;;;;;;2.23;2.03;;;;;;;12.58;42.66;99496.19;10409607;28;20200;-79
2022/10/01 00:42:42;;;;;;;1.70;1.60;;;;;;;12.66;42.13;99486.66;10393522;28;20240;-79
2022/10/01 00:48:05;;;;;;;4.17;2.33;;;;;;;12.35;43.10;99475.44;10396017;28;20508;-79
2022/10/01 00:53:28;;;;;;;3.20;1.80;;;;;;;12.42;42.83;99464.31;10408931;28;20262;-79
2022/10/01 00:58:52;;;;;;;2.37;2.00;;;;;;;12.08;43.72;99463.09;10395446;28;20640;-78
2022/10/01 01:04:15;;;;;;;2.10;1.90;;;;;;;12.57;43.39;99466.28;10409248;28;20262;-79
2022/10/01 01:09:43;;;;;;;3.63;2.20;;;;;;;13.27;43.34;99452.00;10407815;28;20188;-79
2022/10/01 01:15:20;;;;;;;3.07;1.60;;;;;;;12.36;46.15;99448.84;10404568;28;20278;-79
2022/10/01 01:20:56;;;;;;;2.60;2.40;;;;;;;12.44;47.09;99436.50;10403504;28;20263;-80
2022/10/01 01:26:38;;;;;;;2.87;2.30;;;;;;;11.87;50.30;99420.22;10417500;28;20228;-78
2022/10/01 01:32:06;;;;;;;3.20;2.60;;;;;;;11.31;53.25;99408.31;10416235;28;20246;-79
2022/10/01 01:37:33;;;;;;;2.80;2.43;;;;;;;11.45;52.90;99408.69;10416458;28;20536;-78
2022/10/01 01:42:56;;;;;;;2.90;2.70;;;;;;;10.72;55.93;99393.00;10417088;28;20248;-80
2022/10/01 01:48:18;;;;;;;4.37;3.20;;;;;;;11.23;55.00;99362.97;10422770;28;20289;-80
2022/10/01 01:53:41;;;;;;;3.83;2.40;;;;;;;11.27;55.14;99358.25;10416598;28;20591;-79
2022/10/01 01:59:03;;;;;;;3.00;2.70;;;;;;;11.07;56.12;99335.97;10415968;28;20633;-78
2022/10/01 02:04:45;;;;;;;3.00;2.60;;;;;;;11.12;56.49;99311.13;10420971;28;20318;-78
2022/10/01 02:10:25;;;;;;;4.20;2.27;;;;;;;10.94;57.18;99304.22;10408121;28;20204;-78
2022/10/01 02:16:06;;;;;;;3.10;2.80;;;;;;;11.33;56.26;99287.47;10419284;28;20216;-78
2022/10/01 02:21:37;;;;;;;3.10;2.63;;;;;;;11.01;57.97;99293.13;10421559;28;20216;-78
2022/10/01 02:27:02;;;;;;;2.73;2.53;;;;;;;10.75;58.21;99273.91;10420257;28;20224;-78
2022/10/01 02:32:26;;;;;;;3.73;2.50;;;;;;;10.98;56.44;99276.91;10417112;28;20219;-79
2022/10/01 02:37:50;;;;;;;4.77;2.73;;;;;;;10.39;59.22;99274.13;10415695;28;20598;-79
2022/10/01 02:43:17;;;;;;;3.00;2.70;;;;;;;10.87;58.56;99275.81;10420862;28;20208;-82
2022/10/01 02:48:39;;;;;;;3.23;2.47;;;;;;;10.99;57.91;99289.84;10416968;28;20493;-78
2022/10/01 02:54:13;;;;;;;5.23;3.60;;;;;;;10.90;58.68;99286.38;10406693;28;20201;-79
2022/10/01 02:59:35;;;;;;;3.00;2.70;;;;;;;11.52;56.52;99285.53;10392863;28;20232;-79
2022/10/01 03:04:58;;;;;;;2.90;2.60;;;;;;;10.10;61.20;99278.94;10416121;28;20568;-78
2022/10/01 03:10:20;;;;;;;2.90;2.70;;;;;;;10.75;59.51;99247.72;10413807;28;20262;-79
2022/10/01 03:15:44;;;;;;;3.70;2.83;;;;;;;10.30;60.88;99208.69;10413206;28;20625;-79
2022/10/01 03:21:07;;;;;;;3.23;2.70;;;;;;;10.75;60.10;99194.19;10413435;28;20251;-79
2022/10/01 03:26:29;;;;;;;3.13;2.70;;;;;;;10.26;61.02;99191.69;10399077;28;20282;-78
2022/10/01 03:31:52;;;;;;;3.10;2.47;;;;;;;10.29;62.36;99187.34;10412352;28;20258;-78
2022/10/01 03:37:14;;;;;;;2.93;2.23;;;;;;;10.12;63.15;99189.31;10412415;28;20250;-79
2022/10/01 03:42:36;;;;;;;3.53;2.60;;;;;;;10.38;61.67;99194.44;10412221;28;20306;-79
2022/10/01 03:47:58;;;;;;;3.70;2.40;;;;;;;10.38;62.13;99202.06;10407745;28;20227;-79
2022/10/01 03:53:20;;;;;;;3.03;2.10;;;;;;;10.39;61.64;99210.16;10392124;28;20219;-80
2022/10/01 03:58:43;;;;;;;3.10;2.30;;;;;;;10.56;62.21;99190.06;10398036;28;20212;-79
2022/10/01 04:04:05;;;;;;;2.80;2.17;;;;;;;10.39;62.22;99183.97;10411551;28;20250;-79
2022/10/01 04:09:27;;;;;;;2.13;1.70;;;;;;;9.79;64.38;99118.41;10410582;28;20649;-80
2022/10/01 04:14:49;;;;;;;2.00;1.90;;;;;;;10.40;62.84;99104.75;10406058;28;20232;-79
2022/10/01 04:20:11;;;;;;;2.93;1.50;;;;;;;10.34;62.22;99128.72;10419539;28;20510;-79
2022/10/01 04:25:34;;;;;;;1.77;1.17;;;;;;;10.73;62.14;99124.09;10441969;28;20220;-79
2022/10/01 04:31:23;;;;;;;1.27;1.17;;;;;;;10.41;62.90;99120.47;10419307;28;20277;-80
2022/10/01 04:36:38;;;;;;;1.43;1.13;;;;;;;10.69;62.38;99113.94;10419980;28;20249;-79
2022/10/01 04:42:01;;;;;;;1.73;0.90;;;;;;;10.85;62.17;99104.25;10449673;28;20244;-80
2022/10/01 04:47:23;;;;;;;1.13;0.50;;;;;;;10.50;62.25;99115.47;10426496;28;20241;-79
2022/10/01 04:52:46;;;;;;;0.40;0.40;;;;;;;10.64;62.15;99091.66;10393424;28;20382;-78
2022/10/01 04:58:08;;;;;;;0.60;0.60;;;;;;;11.31;59.79;99093.19;10411664;28;20222;-78
2022/10/01 05:03:31;;;;;;;1.63;0.70;;;;;;;10.76;60.85;99100.00;10423514;28;20305;-79
2022/10/01 05:08:54;;;;;;;0.50;0.50;;;;;;;10.79;60.36;99099.28;10398090;28;20560;-78
2022/10/01 05:14:18;;;;;;;1.03;0.50;;;;;;;10.84;60.64;99094.16;10405344;28;20294;-78
2022/10/01 05:19:40;;;;;;;0.50;0.30;;;;;;;11.83;57.70;99092.66;10387052;28;20260;-78
2022/10/01 05:25:02;;;;;;;0.50;0.50;;;;;;;11.23;59.67;99092.19;10438052;28;20282;-79
2022/10/01 05:30:24;;;;;;;0.30;0.30;;;;;;;11.55;58.20;99090.09;10403230;28;20224;-78
2022/10/01 05:35:46;;;;;;;0.30;0.30;;;;;;;11.67;58.52;99096.75;10407541;28;20297;-78
2022/10/01 05:41:09;;;;;;;0.33;0.33;;;;;;;11.72;57.87;99102.94;10407734;28;20318;-78
2022/10/01 05:46:31;;;;;;;0.40;0.40;;;;;;;11.53;60.34;99129.16;10406522;28;20213;-79
2022/10/01 05:51:53;;;;;;;0.30;0.30;;;;;;;11.07;61.06;99142.22;10404109;28;20201;-79
2022/10/01 05:57:16;;;;;;;0.40;0.40;;;;;;;11.40;60.16;99158.66;10394538;28;20201;-79
2022/10/01 06:02:38;;;;;;;0.53;0.33;;;;;;;12.07;58.99;99153.59;10409293;28;20248;-78
2022/10/01 06:08:03;;;;;;;1.07;0.37;;;;;;;11.32;62.60;99181.44;10414224;28;20224;-79
2022/10/01 06:13:25;;;;;;;0.40;0.30;;;;;;;10.79;64.49;99193.09;10413226;28;20291;-79
2022/10/01 06:18:48;;;;;;;1.10;0.30;;;;;;;10.78;64.56;99193.47;10417757;28;20737;-77
2022/10/01 06:24:10;;;;;;;0.63;0.30;;;;;;;11.68;61.36;99185.88;10412893;28;20228;-79
2022/10/01 06:29:32;;;;;;;3.40;0.10;;;;;;;11.33;61.91;99192.38;10415228;28;20280;-79
2022/10/01 06:34:54;;;;;;;0.20;0.20;;;;;;;11.49;61.52;99192.31;10415237;28;20243;-80
2022/10/01 06:40:16;;;;;;;0.77;0.20;;;;;;;12.09;59.84;99187.94;10409866;28;20244;-80
2022/10/01 06:45:42;;;;;;;0.40;0.40;;;;;;;11.27;63.26;99188.19;10407255;28;20220;-83
2022/10/01 06:51:04;;;;;;;1.33;0.70;;;;;;;11.75;61.55;99189.66;10412340;28;20205;-79
2022/10/01 06:56:26;;;;;;;0.60;0.20;;;;;;;11.89;60.96;99192.78;10413162;28;20274;-79
2022/10/01 07:01:49;;;;;;;0.27;0.20;;;;;;;12.05;60.35;99183.41;10413389;28;20217;-80
2022/10/01 07:07:11;;;;;;;0.40;0.30;;;;;;;12.06;60.52;99187.88;10414040;28;20223;-79
2022/10/01 07:12:34;;;;;;;0.57;0.20;;;;;;;12.58;58.21;99187.25;10397035;28;20585;-82
2022/10/01 07:17:55;;;;;;;1.07;0.60;;;;;;;11.78;60.84;99197.41;10468970;28;20605;-80
2022/10/01 07:23:18;;;;;;;2.10;0.80;;;;;;;12.93;57.07;99196.34;10450919;28;20712;-79
2022/10/01 07:28:40;;;;;;;0.50;0.50;;;;;;;11.96;60.86;99204.25;10468191;28;20261;-80
2022/10/01 07:34:02;;;;;;;0.90;0.90;;;;;;;12.23;60.79;99201.53;10455074;28;20584;-80
2022/10/01 07:39:24;;;;;;;0.80;0.80;;;;;;;12.68;59.47;99201.56;10454379;28;20196;-79
2022/10/01 07:44:46;;;;;;;0.90;0.90;;;;;;;13.00;58.73;99218.28;10454566;28;20253;-79
2022/10/01 07:50:08;;;;;;;1.87;1.23;;;;;;;12.58;59.97;99213.53;10421048;28;20208;-80
2022/10/01 07:55:31;;;;;;;1.20;1.10;;;;;;;12.78;58.53;99216.25;10498088;28;20207;-80
2022/10/01 08:00:57;;;;;;;1.63;1.03;;;;;;;13.31;58.19;99225.66;10493818;28;20512;-79
2022/10/01 08:06:19;;;;;;;2.37;2.17;;;;;;;12.41;60.63;99225.31;10492787;28;20305;-83
2022/10/01 08:11:42;;;;;;;2.97;2.07;;;;;;;12.88;58.89;99239.09;10496058;28;20597;-79
2022/10/01 08:17:03;;;;;;;7.43;4.50;;;;;;;12.88;59.61;99232.63;10472099;28;20830;-80
2022/10/01 08:22:26;;;;;;;5.63;3.90;;;;;;;13.34;58.43;99239.84;10459053;28;20234;-80
2022/10/01 08:27:48;;;;;;;3.00;1.90;;;;;;;13.94;55.96;99239.88;10474344;28;20284;-80
2022/10/01 08:33:13;;;;;;;6.60;1.40;;;;;;;13.61;58.94;99251.16;10506294;28;20187;-80
2022/10/01 08:38:35;;;;;;;2.17;1.30;;;;;;;13.11;60.73;99264.53;10461793;28;20260;-79
2022/10/01 08:43:58;;;;;;;1.07;0.97;;;;;;;13.19;60.58;99263.47;10452941;28;20247;-78
2022/10/01 08:49:27;;;;;;;1.47;1.27;;;;;;;14.04;57.57;99261.09;10447958;28;20211;-78
2022/10/01 08:55:05;;;;;;;1.00;0.80;;;;;;;13.89;59.81;99282.72;10489950;28;20198;-79
2022/10/01 09:00:30;;;;;;;1.87;1.03;;;;;;;15.29;56.21;99278.22;10505389;28;20481;-79
2022/10/01 09:06:18;;;;;;;2.67;0.90;;;;;;;14.99;56.71;99288.91;10434466;28;20204;-77
2022/10/01 09:11:53;;;;;;;1.43;0.80;;;;;;;14.09;58.74;99303.25;10414088;28;20254;-78
2022/10/01 09:17:28;;;;;;;2.33;1.03;;;;;;;14.57;58.01;99306.28;10464664;28;20215;-80
2022/10/01 09:23:01;;;;;;;3.70;0.97;;;;;;;14.28;58.52;99310.78;10446808;28;20235;-78
2022/10/01 09:28:27;;;;;;;6.33;1.80;;;;;;;13.88;59.94;99309.41;10457687;28;20234;-79
2022/10/01 09:34:23;;;;;;;4.13;1.50;;;;;;;15.61;55.02;99303.25;10460747;28;20559;-78
2022/10/01 09:40:04;;;;;;;6.33;1.73;;;;;;;15.17;56.41;99306.91;10448581;28;20199;-78
2022/10/01 09:45:26;;;;;;;2.20;1.33;;;;;;;14.73;58.67;99315.34;10512529;28;20191;-79
2022/10/01 09:50:54;;;;;;;2.13;1.33;;;;;;;14.73;58.11;99321.03;10499062;28;20195;-79
2022/10/01 09:56:27;;;;;;;2.37;1.43;;;;;;;15.07;56.45;99321.84;10510143;28;20196;-78
2022/10/01 10:01:52;;;;;;;3.90;1.40;;;;;;;15.84;55.85;99324.53;10511638;28;20210;-81
2022/10/01 10:07:17;;;;;;;3.33;1.07;;;;;;;15.30;56.88;99328.13;10507154;28;20195;-79
2022/10/01 10:12:40;;;;;;;3.43;1.33;;;;;;;15.45;57.17;99341.25;10438687;28;20204;-79
2022/10/01 10:18:07;;;;;;;2.90;1.80;;;;;;;14.86;58.87;99352.81;10441088;28;20199;-79
2022/10/01 10:23:30;;;;;;;1.20;1.10;;;;;;;15.14;59.07;99356.75;10430280;28;20247;-79
2022/10/01 10:28:52;;;;;;;4.00;1.70;;;;;;;14.22;59.79;99366.16;10455048;28;20266;-80
2022/10/01 10:34:21;;;;;;;5.47;1.63;;;;;;;15.08;58.14;99360.38;10476182;28;20592;-80
2022/10/01 10:39:52;;;;;;;1.93;1.67;;;;;;;14.23;60.55;99362.94;10452900;28;20246;-80
2022/10/01 10:45:16;;;;;;;3.40;0.93;;;;;;;14.37;59.63;99359.50;10437683;28;20231;-80
2022/10/01 10:50:39;;;;;;;4.60;1.37;;;;;;;15.76;55.50;99364.63;10453296;28;20269;-81
2022/10/01 10:56:04;;;;;;;1.90;1.40;;;;;;;15.22;57.54;99371.88;10484029;28;20198;-80
2022/10/01 11:01:27;;;;;;;2.92;1.42;;;;;;;16.13;56.01;99365.31;10439466;28;20212;-80
2022/10/01 11:06:57;;;;;;;3.30;1.73;;;;;;;15.98;54.91;99369.25;10471434;28;20208;-79
2022/10/01 11:12:42;;;;;;;2.35;1.70;;;;;;;15.47;56.63;99372.91;10468673;28;20579;-79
2022/10/01 11:18:54;;;;;;;1.93;1.40;;;;;;;16.03;55.37;99376.59;10474983;28;20195;-81
2022/10/01 11:24:25;;;;;;;3.23;1.30;;;;;;;16.58;53.17;99394.41;10392936;28;20290;-79
2022/10/01 11:30:26;;;;;;;2.23;1.23;;;;;;;16.74;52.82;99388.38;10470267;28;20508;-80
2022/10/01 11:36:55;;;;;;;1.85;1.60;;;;;;;16.55;53.02;99403.72;10460586;28;20196;-79
2022/10/01 11:42:37;;;;;;;5.47;1.80;;;;;;;16.72;52.24;99402.19;10455951;28;20215;-82
2022/10/01 11:48:06;;;;;;;4.13;2.07;;;;;;;17.00;52.63;99396.63;10458079;28;20759;-80
2022/10/01 11:53:32;;;;;;;4.70;1.70;;;;;;;17.13;50.84;99400.72;10442738;28;20192;-77
2022/10/01 11:59:00;;;;;;;7.95;2.97;;;;;;;16.28;51.18;99402.38;10434304;28;20235;-78
2022/10/01 12:04:36;;;;;;;5.72;1.90;;;;;;;17.29;49.27;99397.53;10423173;28;20251;-77
2022/10/01 12:10:16;;;;;;;7.70;2.00;;;;;;;16.98;49.54;99403.94;10417451;28;20239;-78
2022/10/01 12:15:57;;;;;;;10.53;5.73;;;;;;;17.98;47.85;99389.41;10450772;28;20248;-78
2022/10/01 12:21:24;;;;;;;4.73;2.13;;;;;;;16.28;51.87;99433.66;10431702;28;20239;-80
2022/10/01 12:27:18;;;;;;;6.80;2.07;;;;;;;16.75;53.38;99453.44;10465089;28;20592;-81
2022/10/01 12:32:51;;;;;;;4.20;1.23;;;;;;;15.27;55.25;99467.19;10451482;28;20227;-81
2022/10/01 12:38:56;;;;;;;2.37;0.70;;;;;;;15.07;53.81;99472.25;10458325;28;20222;-80
2022/10/01 12:44:45;;;;;;;3.10;0.70;;;;;;;16.32;51.06;99451.53;10387737;28;20284;-80
2022/10/01 12:50:20;;;;;;;2.77;1.07;;;;;;;16.99;52.83;99486.09;10430182;28;20235;-80
2022/10/01 12:55:45;;;;;;;4.70;1.63;;;;;;;16.76;51.45;99477.84;10450250;28;20216;-78
2022/10/01 13:01:17;;;;;;;2.17;1.50;;;;;;;17.13;52.70;99476.78;10435389;28;20236;-80
2022/10/01 13:07:13;;;;;;;5.57;2.70;;;;;;;17.68;50.61;99482.25;10445723;28;20596;-81
2022/10/01 13:12:48;;;;;;;6.90;2.63;;;;;;;17.60;53.30;99476.50;10442441;28;20599;-80
2022/10/01 13:18:34;;;;;;;5.30;2.00;;;;;;;16.69;52.66;99494.84;10439005;28;20216;-82
2022/10/01 13:23:59;;;;;;;6.57;1.90;;;;;;;16.37;54.13;99525.13;10437115;28;20247;-79
2022/10/01 13:29:33;;;;;;;6.37;0.93;;;;;;;14.49;51.22;99506.69;10431510;28;20222;-82
2022/10/01 13:34:57;;;;;;;4.20;0.90;;;;;;;14.22;53.12;99505.03;10441270;28;20195;-81
2022/10/01 13:40:30;;;;;;;8.87;2.70;;;;;;;16.45;49.30;99498.34;10447344;28;20213;-80
2022/10/01 13:45:53;;;;;;;6.20;2.07;;;;;;;17.00;51.24;99526.75;10428533;28;20274;-81
2022/10/01 13:51:16;;;;;;;10.32;1.45;;;;;;;16.89;51.32;99521.81;10436897;28;20741;-81
2022/10/01 13:56:38;;;;;;;5.97;1.70;;;;;;;16.24;53.70;99541.69;10469662;28;20204;-80
2022/10/01 14:02:01;;;;;;;6.37;1.53;;;;;;;15.73;54.18;99555.78;10449639;28;20242;-80
2022/10/01 14:07:27;;;;;;;8.33;1.33;;;;;;;15.80;52.64;99561.53;10477333;28;20492;-80
2022/10/01 14:18:37;;;;;;;11.17;7.97;;;;;;;16.43;51.36;99583.25;10452551;28;20196;-79
2022/10/01 14:24:26;;;;;;;5.30;1.10;;;;;;;15.69;50.28;99587.00;10439204;28;20648;-79
2022/10/01 14:30:14;;;;;;;7.20;1.10;;;;;;;16.59;46.94;99600.88;10425615;28;20196;-79
2022/10/01 14:36:05;;;;;;;5.37;1.20;;;;;;;16.73;45.19;99609.53;10425172;28;20241;-79
2022/10/01 14:41:32;;;;;;;2.97;1.20;;;;;;;17.21;44.46;99617.97;10443626;28;20244;-80
2022/10/01 14:46:56;;;;;;;3.87;0.80;;;;;;;16.49;46.92;99621.53;10405945;28;20204;-82
2022/10/01 14:52:25;;;;;;;5.90;1.03;;;;;;;16.79;44.55;99630.72;10412773;28;20188;-79
2022/10/01 14:57:50;;;;;;;7.73;1.00;;;;;;;17.18;42.77;99633.88;10402374;28;20196;-79
2022/10/01 15:03:16;;;;;;;6.20;0.93;;;;;;;16.40;45.36;99650.31;10394013;28;20224;-79
2022/10/01 15:08:43;;;;;;;5.53;0.60;;;;;;;15.47;46.91;99670.28;10411602;28;20243;-80
2022/10/01 15:14:07;;;;;;;2.93;0.80;;;;;;;15.36;49.64;99672.97;10427152;28;20207;-81
2022/10/01 15:19:29;;;;;;;5.43;0.63;;;;;;;14.73;49.81;99673.59;10415633;28;20192;-82
2022/10/01 15:24:53;;;;;;;2.37;0.83;;;;;;;15.66;50.74;99680.69;10444997;28;20255;-80
2022/10/01 15:30:17;;;;;;;2.33;0.63;;;;;;;16.03;48.82;99695.75;10451482;28;20196;-80
2022/10/01 15:35:39;;;;;;;3.40;0.73;;;;;;;16.14;49.52;99696.72;10452500;28;20559;-80
2022/10/01 15:41:02;;;;;;;4.63;0.67;;;;;;;15.80;48.87;99703.59;10452716;28;20218;-80
2022/10/01 15:46:31;;;;;;;4.67;0.80;;;;;;;15.79;49.63;99713.31;10433162;28;20212;-80
2022/10/01 15:57:43;;;;;;;6.00;1.20;;;;;;;15.85;51.11;99717.47;10451684;28;20321;-80
2022/10/01 16:03:05;;;;;;;3.90;0.83;;;;;;;15.65;49.68;99725.31;10430265;28;20607;-79
2022/10/01 16:08:33;;;;;;;3.67;1.00;;;;;;;15.87;47.73;99729.28;10409660;28;20231;-80
2022/10/01 16:14:19;;;;;;;7.77;2.03;;;;;;;15.60;47.92;99745.56;10459677;28;20301;-80
2022/10/01 16:19:49;;;;;;;4.97;1.20;;;;;;;15.83;48.17;99756.81;10438074;28;20218;-80
2022/10/01 16:25:23;;;;;;;7.13;1.47;;;;;;;15.88;47.35;99767.03;10439424;28;20874;-80
2022/10/01 16:30:49;;;;;;;5.17;1.60;;;;;;;16.14;47.77;99773.50;10464393;28;20219;-80
2022/10/01 16:36:18;;;;;;;5.47;1.47;;;;;;;15.75;46.48;99775.00;10445090;28;20912;-80
2022/10/01 16:41:42;;;;;;;4.17;1.40;;;;;;;15.92;45.42;99784.94;10438211;28;20201;-80
2022/10/01 16:47:04;;;;;;;6.17;2.07;;;;;;;16.46;45.04;99792.97;10445950;28;20214;-81
2022/10/01 16:52:26;;;;;;;19.03;7.47;;;;;;;17.03;42.81;99807.84;10457297;28;20222;-80
2022/10/01 16:57:49;;;;;;;5.10;1.97;;;;;;;15.29;46.02;99820.50;10451294;28;20195;-79
2022/10/01 17:03:17;;;;;;;7.00;1.80;;;;;;;15.46;46.69;99836.19;10424074;28;20223;-79
2022/10/01 17:08:39;;;;;;;4.57;1.53;;;;;;;16.60;44.20;99830.13;10446304;28;20218;-80
2022/10/01 17:14:01;;;;;;;5.47;1.45;;;;;;;15.67;45.83;99847.09;10450979;28;20579;-79
2022/10/01 17:19:24;;;;;;;8.13;1.80;;;;;;;15.48;44.75;99850.84;10460069;28;20461;-80
2022/10/01 17:24:46;;;;;;;4.87;1.53;;;;;;;15.81;44.86;99858.69;10444410;28;20597;-80
2022/10/01 17:30:08;;;;;;;7.13;1.60;;;;;;;15.58;44.35;99872.94;10460623;28;20276;-80
2022/10/01 17:35:30;;;;;;;9.13;2.07;;;;;;;16.05;44.04;99892.34;10432419;28;20188;-80
2022/10/01 17:40:52;;;;;;;9.63;1.33;;;;;;;15.50;44.80;99908.91;10433048;28;20204;-80
2022/10/01 17:46:14;;;;;;;9.30;2.67;;;;;;;16.11;43.72;99912.75;10434334;28;20287;-82
2022/10/01 17:51:36;;;;;;;6.35;2.08;;;;;;;15.76;46.05;99935.72;10441463;28;20597;-82
2022/10/01 17:56:58;;;;;;;6.80;2.33;;;;;;;15.81;44.13;99949.63;10482165;28;20562;-82
2022/10/01 18:02:20;;;;;;;8.02;2.38;;;;;;;15.66;44.77;99959.09;10451015;28;21134;-82
2022/10/01 18:07:43;;;;;;;13.20;5.60;;;;;;;15.92;44.37;99967.66;10458592;28;20457;-82
2022/10/01 18:13:05;;;;;;;9.30;3.37;;;;;;;14.56;48.17;99974.75;10447835;28;20214;-82
2022/10/01 18:18:27;;;;;;;10.07;3.53;;;;;;;15.21;46.35;99979.75;10474218;28;20204;-84
2022/10/01 18:23:49;;;;;;;7.67;3.97;;;;;;;15.16;46.15;99980.88;10465919;28;20219;-82
2022/10/01 18:29:20;;;;;;;6.47;3.40;;;;;;;15.44;46.34;99998.47;10455296;28;20661;-81
2022/10/01 18:34:53;;;;;;;8.40;3.40;;;;;;;15.14;46.32;100003.13;10451261;28;20246;-80
2022/10/01 18:40:39;;;;;;;11.73;3.87;;;;;;;14.89;46.71;100013.97;10456929;28;20195;-82
2022/10/01 18:46:49;;;;;;;12.37;4.60;;;;;;;14.98;46.10;100027.97;10451685;28;20627;-81
2022/10/01 18:52:14;;;;;;;9.57;3.47;;;;;;;15.36;45.33;100042.13;10387216;28;20550;-82
2022/10/01 18:57:53;;;;;;;9.50;3.73;;;;;;;15.23;46.31;100040.66;10442906;28;20203;-82
2022/10/01 19:03:34;;;;;;;9.10;3.53;;;;;;;15.16;45.53;100054.69;10433612;28;20220;-82
2022/10/01 19:09:35;;;;;;;12.57;3.20;;;;;;;14.75;47.71;100064.69;10438656;28;20273;-82
2022/10/01 19:15:18;;;;;;;10.80;3.17;;;;;;;14.99;46.78;100083.50;10451664;28;20242;-82
2022/10/01 19:21:02;;;;;;;8.93;3.37;;;;;;;14.58;47.57;100090.66;10444175;28;20199;-82
2022/10/01 19:26:33;;;;;;;6.57;2.83;;;;;;;14.60;48.57;100097.56;10450469;28;20384;-82
2022/10/01 19:32:00;;;;;;;11.50;3.23;;;;;;;14.63;48.39;100099.69;10487815;28;20226;-82
2022/10/01 19:37:45;;;;;;;10.47;2.77;;;;;;;13.85;50.21;100114.66;10480741;28;20225;-81
2022/10/01 19:43:31;;;;;;;9.47;2.60;;;;;;;14.98;48.35;100121.63;10461543;28;20270;-82
2022/10/01 19:49:05;;;;;;;9.40;2.30;;;;;;;14.40;49.46;100130.72;10461300;28;20225;-82
2022/10/01 19:54:32;;;;;;;16.67;3.10;;;;;;;15.05;47.88;100133.94;10453580;28;20528;-83
2022/10/01 20:00:08;;;;;;;10.80;2.40;;;;;;;14.04;50.37;100140.34;10458033;28;20280;-82
2022/10/01 20:05:43;;;;;;;9.27;2.30;;;;;;;15.07;47.86;100142.91;10435359;28;20211;-82
2022/10/01 20:11:18;;;;;;;11.63;2.77;;;;;;;14.56;50.19;100155.44;10466851;28;20199;-82
2022/10/01 20:16:45;;;;;;;14.40;2.67;;;;;;;14.50;48.70;100159.72;10449764;28;20695;-82
2022/10/01 20:22:39;;;;;;;11.17;2.87;;;;;;;14.74;47.88;100166.00;10450425;28;20200;-82
2022/10/01 20:28:14;;;;;;;7.70;2.30;;;;;;;14.95;47.82;100170.59;10459954;28;20223;-81
2022/10/01 20:33:50;;;;;;;9.03;2.60;;;;;;;14.61;48.56;100180.66;10439342;28;20226;-82
2022/10/01 20:39:16;;;;;;;12.53;2.40;;;;;;;14.73;48.06;100187.06;10449034;28;20543;-82
2022/10/01 20:44:39;;;;;;;8.20;2.60;;;;;;;13.85;50.15;100188.31;10463101;28;20616;-82
2022/10/01 20:50:09;;;;;;;11.40;2.80;;;;;;;14.23;48.81;100190.63;10445831;28;20196;-82
2022/10/01 20:55:39;;;;;;;12.23;2.60;;;;;;;14.57;47.91;100200.44;10428417;28;20246;-83
2022/10/01 21:01:14;;;;;;;14.13;2.63;;;;;;;13.99;49.68;100200.09;10440843;28;20203;-83
2022/10/01 21:06:46;;;;;;;7.33;2.13;;;;;;;13.92;49.78;100216.06;10453323;28;20220;-83
2022/10/01 21:12:36;;;;;;;8.87;2.23;;;;;;;14.70;47.63;100207.66;10447917;28;20191;-83
2022/10/01 21:18:27;;;;;;;11.87;2.23;;;;;;;14.41;48.79;100216.63;10453036;28;20218;-81
2022/10/01 21:24:02;;;;;;;15.17;2.10;;;;;;;14.26;48.73;100225.94;10471855;28;20251;-82
2022/10/01 21:29:47;;;;;;;10.70;2.37;;;;;;;13.99;49.54;100222.75;10430438;28;20212;-82
2022/10/01 21:35:31;;;;;;;13.57;2.60;;;;;;;14.09;49.74;100230.75;10477489;28;20584;-84
2022/10/01 21:40:59;;;;;;;6.77;2.10;;;;;;;14.08;49.45;100231.09;10457874;28;20670;-83
2022/10/01 21:46:51;;;;;;;10.53;2.30;;;;;;;14.00;49.78;100247.09;10462157;28;20266;-84
2022/10/01 21:52:32;;;;;;;12.90;2.53;;;;;;;13.78;50.86;100247.63;10453151;28;20198;-84
2022/10/01 21:58:22;;;;;;;8.77;2.10;;;;;;;13.80;50.66;100256.59;10450947;28;20549;-83
2022/10/01 22:03:49;;;;;;;8.80;1.70;;;;;;;14.10;50.35;100257.06;10431706;28;20215;-82
2022/10/01 22:09:21;;;;;;;6.67;1.67;;;;;;;14.25;49.22;100264.78;10436619;28;20202;-84
2022/10/01 22:14:44;;;;;;;11.20;3.30;;;;;;;13.67;51.70;100280.47;10452389;28;20212;-84
2022/10/01 22:20:07;;;;;;;9.93;1.63;;;;;;;13.66;52.11;100287.31;10427789;28;20200;-84
2022/10/01 22:25:29;;;;;;;9.33;2.13;;;;;;;14.16;49.98;100283.16;10481532;28;20255;-83
2022/10/01 22:30:52;;;;;;;11.27;2.37;;;;;;;13.13;52.87;100303.41;10464675;28;20265;-84
2022/10/01 22:36:30;;;;;;;11.10;2.07;;;;;;;13.50;52.25;100304.22;10445898;28;20196;-85
2022/10/01 22:42:13;;;;;;;16.67;3.00;;;;;;;13.85;51.68;100295.97;10449849;28;20208;-83
2022/10/01 22:47:42;;;;;;;8.77;1.77;;;;;;;12.84;54.14;100295.13;10437609;28;20219;-83
2022/10/01 22:53:45;;;;;;;8.97;2.90;;;;;;;14.19;50.99;100288.09;10437967;28;20207;-83
2022/10/01 22:59:46;;;;;;;13.57;2.17;;;;;;;13.49;52.53;100293.25;10434569;28;20567;-83
2022/10/01 23:05:36;;;;;;;16.17;2.23;;;;;;;14.07;50.79;100294.66;10459304;28;20242;-83
2022/10/01 23:11:05;;;;;;;10.90;1.97;;;;;;;13.97;51.09;100312.94;10462727;28;20779;-84
2022/10/01 23:16:31;;;;;;;14.33;2.43;;;;;;;13.22;52.48;100318.28;10439968;28;20208;-85
2022/10/01 23:22:13;;;;;;;10.77;2.33;;;;;;;13.33;52.66;100318.63;10460719;28;20234;-83
2022/10/01 23:28:06;;;;;;;10.27;2.03;;;;;;;13.02;54.44;100319.19;10465567;28;20566;-85
2022/10/01 23:33:53;;;;;;;12.40;2.47;;;;;;;13.59;52.68;100326.72;10484214;28;20195;-85
2022/10/01 23:39:21;;;;;;;10.77;2.07;;;;;;;13.74;52.61;100323.16;10477437;28;20228;-84
2022/10/01 23:44:49;;;;;;;7.70;1.60;;;;;;;13.15;54.50;100332.19;10464292;28;20223;-83
2022/10/01 23:50:40;;;;;;;13.10;3.00;;;;;;;13.69;53.09;100331.91;10433991;28;20273;-84
